createdAt,value
2018-10-21T00:01:14.539Z,64.35
2018-10-21T00:03:43.496Z,63.40
2018-10-21T00:06:12.462Z,64.08
2018-10-21T00:08:40.943Z,64.36
2018-10-21T00:11:09.466Z,64.69
2018-10-21T00:13:37.950Z,63.61
2018-10-21T00:16:06.427Z,64.17
2018-10-21T00:18:46.075Z,64.62
2018-10-21T00:21:14.703Z,64.82
2018-10-21T00:23:43.650Z,64.94
2018-10-21T00:26:12.154Z,64.54
2018-10-21T00:28:40.637Z,64.44
2018-10-21T00:31:09.182Z,64.84
2018-10-21T00:33:37.696Z,64.66
2018-10-21T00:36:06.960Z,64.32
2018-10-21T00:38:35.463Z,64.08
2018-10-21T00:41:04.006Z,64.53
2018-10-21T00:43:32.479Z,64.62
2018-10-21T00:46:00.995Z,63.66
2018-10-21T00:48:29.492Z,64.36
2018-10-21T00:50:57.988Z,64.10
2018-10-21T00:53:26.497Z,64.35
2018-10-21T00:55:55.139Z,63.95
2018-10-21T00:58:23.627Z,64.65
2018-10-21T01:00:52.157Z,65.37
2018-10-21T01:03:20.677Z,64.32
2018-10-21T01:05:49.207Z,63.49
2018-10-21T01:08:17.781Z,63.72
2018-10-21T01:10:46.354Z,64.68
2018-10-21T01:13:14.850Z,64.56
2018-10-21T01:15:43.354Z,64.13
2018-10-21T01:18:11.895Z,64.04
2018-10-21T01:20:40.377Z,63.51
2018-10-21T01:23:08.884Z,64.40
2018-10-21T01:25:37.362Z,63.57
2018-10-21T01:28:06.252Z,64.55
2018-10-21T01:30:34.776Z,63.80
2018-10-21T01:33:03.372Z,64.34
2018-10-21T01:35:31.815Z,64.19
2018-10-21T01:38:00.390Z,63.45
2018-10-21T01:40:31.799Z,63.96
2018-10-21T01:43:00.412Z,63.68
2018-10-21T01:45:28.902Z,63.91
2018-10-21T01:47:58.905Z,64.22
2018-10-21T01:50:27.444Z,62.89
2018-10-21T01:52:57.237Z,63.49
2018-10-21T01:55:26.218Z,63.53
2018-10-21T01:57:55.491Z,63.48
2018-10-21T02:00:25.046Z,62.49
2018-10-21T02:02:54.015Z,63.04
2018-10-21T02:05:22.922Z,62.32
2018-10-21T02:07:51.445Z,62.70
2018-10-21T02:10:20.331Z,62.77
2018-10-21T02:12:48.884Z,62.83
2018-10-21T02:15:17.373Z,63.19
2018-10-21T02:17:45.847Z,62.68
2018-10-21T02:20:15.167Z,63.23
2018-10-21T02:22:44.491Z,62.80
2018-10-21T02:25:13.026Z,62.91
2018-10-21T02:27:42.274Z,62.97
2018-10-21T02:30:12.870Z,61.79
2018-10-21T02:32:41.729Z,62.35
2018-10-21T02:35:11.461Z,62.04
2018-10-21T02:37:40.395Z,61.97
2018-10-21T02:41:25.602Z,62.84
2018-10-21T02:43:54.211Z,62.85
2018-10-21T02:46:23.583Z,63.63
2018-10-21T02:48:53.294Z,63.28
2018-10-21T02:51:21.812Z,63.09
2018-10-21T02:53:50.373Z,62.81
2018-10-21T02:56:18.929Z,62.91
2018-10-21T02:58:48.328Z,62.87
2018-10-21T03:01:16.827Z,63.77
2018-10-21T03:03:46.590Z,64.35
2018-10-21T03:06:15.097Z,64.05
2018-10-21T03:08:44.887Z,64.46
2018-10-21T03:11:13.387Z,64.36
2018-10-21T03:13:41.874Z,65.56
2018-10-21T03:16:10.399Z,64.63
2018-10-21T03:18:38.931Z,64.35
2018-10-21T03:21:09.355Z,64.44
2018-10-21T03:23:37.845Z,64.17
2018-10-21T03:26:06.355Z,63.89
2018-10-21T03:28:34.983Z,64.76
2018-10-21T03:31:03.708Z,64.57
2018-10-21T03:33:32.606Z,64.88
2018-10-21T03:36:01.116Z,63.51
2018-10-21T03:38:29.686Z,64.63
2018-10-21T03:40:58.226Z,65.22
2018-10-21T03:43:26.784Z,64.25
2018-10-21T03:45:55.359Z,64.13
2018-10-21T03:48:23.927Z,64.61
2018-10-21T03:50:52.447Z,64.63
2018-10-21T03:53:20.918Z,64.63
2018-10-21T03:55:49.518Z,64.70
2018-10-21T03:58:18.015Z,65.31
2018-10-21T04:00:46.548Z,65.14
2018-10-21T04:03:15.074Z,64.97
2018-10-21T04:05:43.586Z,64.64
2018-10-21T04:08:12.067Z,65.78
2018-10-21T04:10:40.832Z,66.21
2018-10-21T04:13:09.362Z,65.61
2018-10-21T04:15:37.882Z,65.90
2018-10-21T04:18:13.210Z,65.75
2018-10-21T04:20:41.698Z,65.46
2018-10-21T04:23:28.622Z,65.75
2018-10-21T04:25:57.173Z,65.61
2018-10-21T04:28:25.694Z,65.34
2018-10-21T04:30:54.623Z,64.29
2018-10-21T04:33:53.491Z,65.98
2018-10-21T04:36:25.021Z,66.84
2018-10-21T04:40:08.533Z,67.05
2018-10-21T04:42:37.051Z,67.09
2018-10-21T04:45:06.001Z,66.69
2018-10-21T04:47:34.566Z,66.70
2018-10-21T04:50:03.056Z,66.54
2018-10-21T04:52:32.351Z,66.38
2018-10-21T04:55:05.743Z,66.18
2018-10-21T04:57:34.774Z,65.98
2018-10-21T05:00:03.512Z,66.76
2018-10-21T05:02:32.475Z,66.79
2018-10-21T05:05:01.082Z,66.49
2018-10-21T05:07:29.629Z,66.95
2018-10-21T05:09:58.132Z,66.97
2018-10-21T05:12:26.570Z,66.74
2018-10-21T05:14:55.333Z,66.82
2018-10-21T05:17:23.826Z,66.19
2018-10-21T05:19:52.435Z,67.19
2018-10-21T05:22:20.949Z,66.82
2018-10-21T05:24:49.447Z,66.62
2018-10-21T05:27:17.932Z,67.07
2018-10-21T05:29:46.434Z,66.74
2018-10-21T05:32:14.915Z,66.84
2018-10-21T05:34:43.429Z,66.54
2018-10-21T05:37:11.918Z,66.41
2018-10-21T05:39:40.390Z,67.21
2018-10-21T05:42:08.879Z,67.45
2018-10-21T05:44:37.391Z,67.12
2018-10-21T05:47:06.225Z,67.54
2018-10-21T05:49:34.710Z,68.05
2018-10-21T05:52:03.436Z,68.45
2018-10-21T05:54:31.947Z,69.79
2018-10-21T05:57:00.466Z,69.77
2018-10-21T05:59:29.062Z,70.03
2018-10-21T06:01:58.470Z,69.78
2018-10-21T06:04:34.047Z,69.95
2018-10-21T06:07:02.567Z,70.24
2018-10-21T06:09:31.063Z,70.70
2018-10-21T06:11:59.572Z,71.58
2018-10-21T06:14:28.099Z,71.25
2018-10-21T06:17:01.534Z,71.24
2018-10-21T06:19:36.060Z,70.37
2018-10-21T06:22:04.786Z,70.05
2018-10-21T06:24:33.297Z,70.17
2018-10-21T06:27:01.834Z,70.11
2018-10-21T06:29:30.901Z,70.69
2018-10-21T06:31:59.408Z,70.12
2018-10-21T06:34:28.838Z,69.63
2018-10-21T06:36:57.498Z,69.86
2018-10-21T06:39:26.478Z,70.60
2018-10-21T06:41:55.139Z,70.41
2018-10-21T06:44:23.787Z,70.59
2018-10-21T06:46:52.454Z,70.31
2018-10-21T06:49:20.968Z,70.21
2018-10-21T06:51:49.523Z,70.85
2018-10-21T06:54:18.048Z,70.72
2018-10-21T06:56:46.829Z,69.87
2018-10-21T06:59:15.157Z,70.24
2018-10-21T07:01:43.655Z,69.81
2018-10-21T07:04:12.203Z,70.21
2018-10-21T07:06:40.666Z,70.71
2018-10-21T07:09:09.175Z,70.36
2018-10-21T07:11:37.674Z,70.56
2018-10-21T07:14:06.211Z,70.02
2018-10-21T07:16:34.938Z,70.20
2018-10-21T07:19:03.270Z,69.82
2018-10-21T07:21:31.793Z,68.95
2018-10-21T07:24:00.314Z,68.85
2018-10-21T07:26:28.831Z,68.84
2018-10-21T07:28:57.354Z,68.96
2018-10-21T07:31:25.855Z,68.25
2018-10-21T07:33:54.371Z,68.03
2018-10-21T07:36:22.980Z,68.26
2018-10-21T07:38:51.435Z,68.34
2018-10-21T07:41:19.938Z,68.53
2018-10-21T07:43:48.596Z,67.85
2018-10-21T07:46:17.283Z,67.51
2018-10-21T07:48:48.430Z,68.42
2018-10-21T07:51:16.934Z,67.41
2018-10-21T07:53:45.863Z,68.02
2018-10-21T07:56:14.370Z,67.55
2018-10-21T07:58:43.082Z,67.37
2018-10-21T08:01:11.588Z,67.74
2018-10-21T08:03:40.120Z,68.89
2018-10-21T08:06:30.190Z,68.08
2018-10-21T08:08:58.750Z,67.16
2018-10-21T08:11:27.242Z,67.97
2018-10-21T08:13:55.740Z,67.46
2018-10-21T08:16:24.271Z,67.59
2018-10-21T08:18:53.425Z,67.89
2018-10-21T08:21:22.040Z,68.42
2018-10-21T08:23:51.031Z,68.19
2018-10-21T08:26:19.521Z,68.10
2018-10-21T08:28:48.824Z,67.21
2018-10-21T08:31:17.311Z,68.19
2018-10-21T08:33:47.327Z,67.85
2018-10-21T08:36:15.891Z,68.07
2018-10-21T08:38:46.452Z,67.61
2018-10-21T08:41:14.942Z,67.17
2018-10-21T08:43:43.864Z,67.44
2018-10-21T08:46:12.450Z,67.36
2018-10-21T08:48:40.923Z,67.45
2018-10-21T08:51:09.428Z,67.98
2018-10-21T08:53:37.938Z,68.16
2018-10-21T08:56:06.481Z,66.34
2018-10-21T08:58:34.962Z,65.57
2018-10-21T09:01:03.533Z,66.15
2018-10-21T09:03:32.016Z,65.47
2018-10-21T09:06:00.881Z,65.63
2018-10-21T09:08:29.396Z,64.43
2018-10-21T09:11:18.388Z,64.73
2018-10-21T09:13:47.827Z,64.86
2018-10-21T09:16:16.531Z,65.08
2018-10-21T09:18:46.190Z,65.19
2018-10-21T09:21:14.711Z,64.91
2018-10-21T09:23:43.626Z,64.75
2018-10-21T09:26:12.186Z,63.40
2018-10-21T09:28:40.686Z,63.74
2018-10-21T09:31:09.287Z,63.44
2018-10-21T09:33:38.022Z,63.17
2018-10-21T09:36:06.535Z,62.60
2018-10-21T09:38:35.019Z,63.08
2018-10-21T09:41:03.541Z,63.00
2018-10-21T09:43:32.023Z,62.69
2018-10-21T09:46:00.546Z,62.53
2018-10-21T09:48:29.059Z,62.02
2018-10-21T09:50:57.596Z,62.19
2018-10-21T09:53:26.102Z,62.49
2018-10-21T09:55:54.587Z,62.37
2018-10-21T09:58:23.141Z,62.58
2018-10-21T10:00:56.896Z,61.60
2018-10-21T10:03:25.695Z,62.07
2018-10-21T10:05:54.221Z,61.60
2018-10-21T10:08:22.695Z,62.53
2018-10-21T10:10:51.199Z,61.33
2018-10-21T10:13:19.911Z,62.37
2018-10-21T10:15:48.239Z,62.23
2018-10-21T10:18:16.743Z,61.68
2018-10-21T10:20:45.266Z,61.97
2018-10-21T10:23:13.809Z,61.80
2018-10-21T10:25:42.274Z,62.19
2018-10-21T10:28:11.043Z,62.50
2018-10-21T10:30:39.525Z,63.17
2018-10-21T10:33:08.070Z,62.87
2018-10-21T10:35:36.671Z,62.25
2018-10-21T10:38:05.319Z,62.70
2018-10-21T10:40:33.812Z,62.08
2018-10-21T10:43:02.360Z,61.69
2018-10-21T10:45:31.652Z,62.47
2018-10-21T10:48:01.024Z,61.97
2018-10-21T10:50:30.372Z,63.07
2018-10-21T10:52:59.831Z,62.59
2018-10-21T10:55:34.070Z,61.93
2018-10-21T10:58:03.492Z,61.83
2018-10-21T11:00:31.976Z,62.00
2018-10-21T11:03:00.489Z,62.17
2018-10-21T11:05:29.003Z,61.77
2018-10-21T11:07:57.511Z,61.24
2018-10-21T11:10:25.998Z,61.77
2018-10-21T11:12:54.510Z,61.75
2018-10-21T11:15:23.010Z,61.12
2018-10-21T11:17:51.523Z,60.97
2018-10-21T11:20:20.040Z,62.05
2018-10-21T11:22:48.640Z,62.03
2018-10-21T11:25:17.139Z,63.72
2018-10-21T11:27:45.624Z,62.00
2018-10-21T11:30:14.166Z,60.20
2018-10-21T11:32:42.688Z,58.49
2018-10-21T11:35:11.198Z,58.50
2018-10-21T11:37:46.174Z,58.17
2018-10-21T11:40:14.831Z,58.94
2018-10-21T11:42:43.279Z,58.36
2018-10-21T11:45:12.262Z,58.35
2018-10-21T11:47:40.746Z,57.83
2018-10-21T11:50:09.267Z,58.36
2018-10-21T11:52:37.802Z,57.35
2018-10-21T11:55:07.388Z,57.52
2018-10-21T11:57:35.843Z,58.59
2018-10-21T12:00:04.862Z,58.65
2018-10-21T12:02:33.359Z,58.15
2018-10-21T12:05:01.858Z,58.55
2018-10-21T12:07:30.350Z,58.55
2018-10-21T12:09:58.865Z,58.71
2018-10-21T12:12:27.372Z,58.39
2018-10-21T12:14:55.863Z,58.00
2018-10-21T12:17:24.354Z,57.53
2018-10-21T12:19:52.866Z,57.23
2018-10-21T12:22:22.241Z,57.20
2018-10-21T12:24:51.639Z,58.22
2018-10-21T12:27:20.913Z,58.48
2018-10-21T12:29:50.217Z,59.34
2018-10-21T12:32:18.712Z,58.78
2018-10-21T12:34:47.239Z,58.57
2018-10-21T12:37:15.862Z,58.92
2018-10-21T12:39:44.458Z,59.22
2018-10-21T12:42:12.974Z,59.12
2018-10-21T12:44:41.479Z,59.04
2018-10-21T12:47:10.015Z,59.54
2018-10-21T12:49:38.579Z,59.36
2018-10-21T12:52:07.148Z,58.76
2018-10-21T12:54:35.911Z,58.96
2018-10-21T12:57:04.438Z,59.42
2018-10-21T12:59:32.943Z,59.38
2018-10-21T13:02:01.442Z,57.52
2018-10-21T13:04:30.275Z,56.89
2018-10-21T13:06:58.927Z,57.80
2018-10-21T13:09:27.410Z,58.18
2018-10-21T13:11:56.478Z,59.23
2018-10-21T13:14:24.978Z,58.53
2018-10-21T13:16:53.494Z,58.33
2018-10-21T13:19:22.083Z,59.20
2018-10-21T13:21:50.594Z,59.02
2018-10-21T13:24:19.095Z,58.93
2018-10-21T13:26:47.597Z,58.71
2018-10-21T13:29:16.107Z,58.54
2018-10-21T13:31:44.591Z,58.73
2018-10-21T13:34:13.203Z,58.66
2018-10-21T13:36:41.651Z,59.38
2018-10-21T13:39:12.547Z,59.04
2018-10-21T13:41:41.443Z,59.31
2018-10-21T13:44:10.443Z,59.53
2018-10-21T13:46:39.879Z,58.93
2018-10-21T13:52:01.663Z,60.26
2018-10-21T13:54:30.083Z,59.05
2018-10-21T13:56:58.645Z,58.73
2018-10-21T13:59:27.159Z,58.45
2018-10-21T14:01:55.659Z,58.92
2018-10-21T14:04:24.228Z,59.01
2018-10-21T14:06:53.997Z,56.03
2018-10-21T14:09:23.284Z,56.78
2018-10-21T14:11:51.771Z,57.03
2018-10-21T14:14:20.271Z,57.51
2018-10-21T14:16:48.774Z,57.34
2018-10-21T14:19:17.264Z,56.60
2018-10-21T14:21:46.103Z,56.69
2018-10-21T14:24:14.688Z,56.95
2018-10-21T14:26:43.125Z,56.53
2018-10-21T14:29:11.717Z,56.76
2018-10-21T14:31:40.236Z,57.23
2018-10-21T14:34:09.250Z,56.60
2018-10-21T14:36:37.718Z,57.14
2018-10-21T14:39:09.876Z,57.06
2018-10-21T14:41:38.619Z,56.91
2018-10-21T14:44:07.162Z,56.82
2018-10-21T14:46:36.878Z,56.66
2018-10-21T14:49:05.823Z,57.03
2018-10-21T14:51:34.699Z,57.30
2018-10-21T14:54:03.247Z,56.95
2018-10-21T14:56:31.734Z,57.59
2018-10-21T14:59:00.226Z,56.92
2018-10-21T15:01:28.738Z,57.18
2018-10-21T15:03:57.248Z,57.25
2018-10-21T15:06:25.744Z,57.43
2018-10-21T15:08:54.270Z,57.34
2018-10-21T15:11:22.771Z,57.41
2018-10-21T15:13:51.259Z,57.50
2018-10-21T15:16:19.774Z,57.71
2018-10-21T15:18:48.855Z,58.03
2018-10-21T15:21:17.525Z,57.86
2018-10-21T15:23:47.256Z,58.04
2018-10-21T15:26:23.110Z,58.06
2018-10-21T15:28:51.622Z,58.42
2018-10-21T15:31:20.154Z,58.09
2018-10-21T15:33:48.795Z,58.25
2018-10-21T15:36:17.334Z,58.40
2018-10-21T15:38:47.086Z,58.96
2018-10-21T15:41:15.598Z,58.75
2018-10-21T15:43:44.114Z,59.08
2018-10-21T15:46:12.621Z,59.05
2018-10-21T15:48:41.142Z,59.21
2018-10-21T15:51:09.704Z,59.36
2018-10-21T15:53:38.399Z,59.62
2018-10-21T15:56:06.995Z,59.29
2018-10-21T15:58:35.435Z,59.53
2018-10-21T16:01:03.979Z,59.47
2018-10-21T16:03:32.462Z,59.64
2018-10-21T16:06:01.818Z,59.27
2018-10-21T16:08:30.320Z,59.79
2018-10-21T16:10:58.828Z,59.30
2018-10-21T16:13:27.329Z,59.41
2018-10-21T16:15:56.151Z,59.46
2018-10-21T16:18:24.847Z,59.89
2018-10-21T16:20:53.458Z,60.24
2018-10-21T16:23:21.951Z,60.30
2018-10-21T16:25:50.506Z,60.76
2018-10-21T16:28:19.094Z,60.96
2018-10-21T16:30:47.610Z,61.39
2018-10-21T16:33:16.118Z,61.13
2018-10-21T16:35:44.714Z,61.43
2018-10-21T16:38:13.255Z,61.73
2018-10-21T16:40:41.729Z,61.87
2018-10-21T16:43:10.234Z,61.92
2018-10-21T16:45:38.744Z,62.02
2018-10-21T16:48:07.326Z,61.99
2018-10-21T16:50:37.739Z,61.58
2018-10-21T16:53:04.399Z,61.68
2018-10-21T16:55:32.914Z,61.80
2018-10-21T16:58:01.398Z,61.94
2018-10-21T17:00:30.072Z,62.62
2018-10-21T17:02:58.909Z,62.81
2018-10-21T17:05:27.405Z,62.72
2018-10-21T17:07:55.883Z,63.27
2018-10-21T17:10:24.888Z,63.45
2018-10-21T17:12:52.987Z,63.50
2018-10-21T17:15:21.498Z,63.91
2018-10-21T17:17:49.991Z,63.89
2018-10-21T17:20:18.498Z,64.30
2018-10-21T17:22:46.984Z,64.36
2018-10-21T17:25:16.049Z,64.50
2018-10-21T17:27:44.506Z,64.31
2018-10-21T17:30:15.958Z,64.43
2018-10-21T17:32:45.327Z,64.61
2018-10-21T17:35:13.844Z,64.61
2018-10-21T17:37:42.347Z,64.51
2018-10-21T17:40:11.965Z,64.35
2018-10-21T17:42:41.010Z,64.81
2018-10-21T17:45:12.750Z,64.53
2018-10-21T17:47:41.347Z,64.40
2018-10-21T17:50:11.347Z,64.43
2018-10-21T17:52:39.918Z,64.90
2018-10-21T17:55:08.513Z,64.70
2018-10-21T17:57:36.966Z,64.89
2018-10-21T18:00:06.704Z,64.67
2018-10-21T18:02:36.069Z,64.83
2018-10-21T18:05:06.021Z,64.97
2018-10-21T18:07:34.657Z,65.11
2018-10-21T18:10:03.195Z,65.30
2018-10-21T18:12:31.652Z,65.48
2018-10-21T18:15:00.216Z,65.64
2018-10-21T18:17:28.714Z,65.45
2018-10-21T18:19:57.409Z,65.17
2018-10-21T18:22:26.214Z,65.23
2018-10-21T18:24:54.716Z,65.24
2018-10-21T18:27:23.189Z,65.48
2018-10-21T18:29:52.094Z,65.02
2018-10-21T18:32:20.579Z,64.91
2018-10-21T18:34:49.067Z,64.89
2018-10-21T18:37:17.599Z,65.12
2018-10-21T18:39:46.030Z,65.13
2018-10-21T18:42:14.528Z,65.18
2018-10-21T18:44:43.035Z,65.11
2018-10-21T18:47:11.538Z,64.88
2018-10-21T18:49:40.023Z,64.76
2018-10-21T18:52:08.727Z,64.98
2018-10-21T18:54:37.205Z,64.50
2018-10-21T18:57:06.184Z,64.71
2018-10-21T18:59:34.802Z,64.86
2018-10-21T19:02:03.346Z,64.94
2018-10-21T19:04:31.831Z,64.83
2018-10-21T19:07:00.339Z,64.65
2018-10-21T19:09:28.858Z,64.70
2018-10-21T19:11:57.382Z,64.45
2018-10-21T19:14:25.863Z,63.94
2018-10-21T19:16:54.371Z,64.73
2018-10-21T19:19:22.998Z,64.83
2018-10-21T19:21:51.486Z,65.21
2018-10-21T19:24:19.980Z,65.80
2018-10-21T19:26:48.472Z,65.60
2018-10-21T19:29:16.958Z,66.10
2018-10-21T19:31:45.438Z,66.47
2018-10-21T19:34:13.969Z,67.07
2018-10-21T19:36:42.482Z,66.80
2018-10-21T19:39:12.215Z,66.73
2018-10-21T19:41:40.708Z,66.55
2018-10-21T19:44:10.362Z,66.58
2018-10-21T19:46:38.929Z,67.10
2018-10-21T19:49:08.217Z,66.73
2018-10-21T19:51:36.680Z,67.02
2018-10-21T19:54:05.752Z,66.84
2018-10-21T19:56:34.242Z,67.10
2018-10-21T19:59:04.287Z,66.92
2018-10-21T20:01:32.834Z,67.23
2018-10-21T20:04:01.542Z,67.78
2018-10-21T20:06:31.314Z,67.76
2018-10-21T20:08:59.840Z,67.86
2018-10-21T20:11:28.331Z,67.82
2018-10-21T20:13:56.816Z,68.18
2018-10-21T20:16:25.313Z,68.05
2018-10-21T20:18:53.816Z,68.09
2018-10-21T20:21:22.303Z,68.15
2018-10-21T20:23:50.806Z,68.03
2018-10-21T20:26:19.291Z,68.03
2018-10-21T20:28:48.823Z,68.15
2018-10-21T20:31:17.470Z,68.56
2018-10-21T20:33:48.725Z,68.47
2018-10-21T20:36:17.199Z,68.33
2018-10-21T20:38:49.222Z,68.33
2018-10-21T20:41:17.710Z,68.05
2018-10-21T20:43:46.682Z,68.07
2018-10-21T20:46:15.251Z,68.15
2018-10-21T20:48:43.702Z,68.34
2018-10-21T20:51:12.203Z,68.58
2018-10-21T20:53:40.686Z,68.87
2018-10-21T20:56:09.206Z,68.35
2018-10-21T20:58:37.719Z,68.24
2018-10-21T21:01:06.717Z,68.37
2018-10-21T21:03:35.199Z,68.28
2018-10-21T21:06:03.778Z,68.44
2018-10-21T21:08:32.262Z,68.11
2018-10-21T21:11:00.767Z,68.32
2018-10-21T21:13:30.165Z,67.73
2018-10-21T21:15:58.849Z,67.60
2018-10-21T21:18:27.286Z,67.52
2018-10-21T21:20:56.230Z,67.10
2018-10-21T21:23:24.711Z,67.09
2018-10-21T21:25:53.203Z,67.43
2018-10-21T21:28:21.747Z,67.48
2018-10-21T21:30:50.219Z,67.46
2018-10-21T21:33:18.783Z,67.76
2018-10-21T21:35:47.293Z,68.03
2018-10-21T21:38:15.786Z,68.17
2018-10-21T21:40:44.271Z,67.98
2018-10-21T21:43:12.767Z,67.89
2018-10-21T21:45:41.269Z,67.96
2018-10-21T21:48:09.843Z,68.05
2018-10-21T21:50:38.269Z,67.83
2018-10-21T21:55:59.967Z,67.99
2018-10-21T21:58:28.478Z,68.48
2018-10-21T22:00:57.039Z,67.87
2018-10-21T22:03:25.531Z,67.63
2018-10-21T22:05:53.998Z,67.22
2018-10-21T22:08:22.594Z,66.92
2018-10-21T22:10:51.091Z,67.36
2018-10-21T22:13:19.574Z,67.45
2018-10-21T22:15:48.114Z,67.94
2018-10-21T22:18:16.745Z,67.83
2018-10-21T22:20:45.133Z,67.86
2018-10-21T22:23:13.629Z,68.09
2018-10-21T22:25:42.214Z,67.87
2018-10-21T22:28:10.767Z,67.40
2018-10-21T22:30:39.240Z,68.87
2018-10-21T22:33:08.232Z,68.69
2018-10-21T22:35:36.726Z,68.94
2018-10-21T22:38:06.194Z,68.75
2018-10-21T22:40:34.660Z,67.99
2018-10-21T22:43:03.278Z,68.83
2018-10-21T22:45:31.761Z,68.72
2018-10-21T22:48:00.292Z,68.94
2018-10-21T22:50:28.775Z,69.20
2018-10-21T22:52:57.299Z,68.89
2018-10-21T22:55:25.806Z,68.30
2018-10-21T22:57:54.299Z,68.34
2018-10-21T23:00:22.795Z,68.93
2018-10-21T23:02:52.107Z,68.41
2018-10-21T23:05:21.042Z,68.71
2018-10-21T23:07:49.558Z,68.22
2018-10-21T23:10:18.406Z,68.37
2018-10-21T23:12:46.870Z,69.05
2018-10-21T23:15:15.374Z,68.48
2018-10-21T23:17:43.874Z,69.17
2018-10-21T23:20:12.379Z,68.51
2018-10-21T23:22:41.221Z,68.79
2018-10-21T23:25:09.726Z,68.79
2018-10-21T23:27:38.218Z,69.56
2018-10-21T23:30:07.553Z,69.48
2018-10-21T23:32:36.071Z,69.86
2018-10-21T23:35:05.034Z,70.15
2018-10-21T23:37:33.615Z,69.73
2018-10-21T23:40:02.199Z,68.89
2018-10-21T23:42:30.654Z,69.33
2018-10-21T23:44:59.150Z,69.59
2018-10-21T23:47:27.668Z,70.34
2018-10-21T23:49:56.137Z,70.50
2018-10-21T23:52:24.614Z,70.54
2018-10-21T23:57:46.128Z,70.39
